Abbeville, Mississippi
Current Conditions -  °F | °C
As of 12:15 PM on Saturday 25 Oct 2014 (Local Time) from KUOX Reporting Station
Clear Clear  
Wind Chill: 23°   Ceiling: Unl
Heat Index: 23°   Visibility: 10mi
Dew Point: 15°   Wind: 10mph
Humidity: 61%   Direction: 280°W
Pressure: 30.13"   Gusts: NA
Location:  34.5°N, 89.5°W
Report Text: KUOX 251715Z AUTO 28009KT 10SM CLR 23/15 A3013 RMK AO2 PWINO PNO
Loading
Personal Weather Stations






























Interactive Weather Map
Tropical Storm Tracking
New forecast layout! Learn more

10-Day Weather Forecast

Advertisements
Track Severe Weather on mobile